createdAt,value
2019-04-11T00:01:48.601Z,3.30
2019-04-11T00:04:16.404Z,3.30
2019-04-11T00:06:45.671Z,3.20
2019-04-11T00:09:16.780Z,2.90
2019-04-11T00:11:46.207Z,3.00
2019-04-11T00:14:17.871Z,3.10
2019-04-11T00:16:47.985Z,3.10
2019-04-11T00:19:16.961Z,3.10
2019-04-11T00:21:46.771Z,3.10
2019-04-11T00:24:16.968Z,3.10
2019-04-11T00:26:48.598Z,3.10
2019-04-11T00:29:18.400Z,3.50
2019-04-11T00:31:48.038Z,3.50
2019-04-11T00:34:18.451Z,3.60
2019-04-11T00:36:48.472Z,3.50
2019-04-11T00:39:17.485Z,3.40
2019-04-11T00:41:48.261Z,3.10
2019-04-11T00:44:17.358Z,3.10
2019-04-11T00:46:46.723Z,3.00
2019-04-11T00:49:16.554Z,3.10
2019-04-11T00:51:47.760Z,3.20
2019-04-11T00:54:16.469Z,3.40
2019-04-11T00:56:46.553Z,3.40
2019-04-11T00:59:16.481Z,3.50
2019-04-11T01:01:50.083Z,3.50
2019-04-11T01:04:19.974Z,3.30
2019-04-11T01:06:48.653Z,3.10
2019-04-11T01:09:18.053Z,3.20
2019-04-11T01:11:52.195Z,3.00
2019-04-11T01:14:21.608Z,3.00
2019-04-11T01:16:52.704Z,3.00
2019-04-11T01:19:22.375Z,2.90
2019-04-11T01:21:51.181Z,2.80
2019-04-11T01:24:20.073Z,2.60
2019-04-11T01:26:49.591Z,2.40
2019-04-11T01:29:19.571Z,2.50
2019-04-11T01:32:04.034Z,2.40
2019-04-11T01:34:37.003Z,2.20
2019-04-11T01:37:13.596Z,2.10
2019-04-11T01:39:59.415Z,2.20
2019-04-11T01:42:29.101Z,1.90
2019-04-11T01:44:58.286Z,1.80
2019-04-11T01:47:44.982Z,1.80
2019-04-11T01:50:16.769Z,2.00
2019-04-11T01:52:46.650Z,2.00
2019-04-11T01:55:16.446Z,2.00
2019-04-11T01:57:46.408Z,2.10
2019-04-11T02:00:34.565Z,2.10
2019-04-11T02:03:06.792Z,2.20
2019-04-11T02:05:37.240Z,2.10
2019-04-11T02:08:07.257Z,2.00
2019-04-11T02:10:37.068Z,1.90
2019-04-11T02:13:07.870Z,1.80
2019-04-11T02:15:37.067Z,1.80
2019-04-11T02:18:09.471Z,1.80
2019-04-11T02:20:40.953Z,1.80
2019-04-11T02:23:23.415Z,1.80
2019-04-11T02:25:54.469Z,1.60
2019-04-11T02:28:23.134Z,1.50
2019-04-11T02:30:54.436Z,1.50
2019-04-11T02:33:25.816Z,1.40
2019-04-11T02:35:54.394Z,1.50
2019-04-11T02:38:24.342Z,1.40
2019-04-11T02:40:54.880Z,1.40
2019-04-11T02:43:25.176Z,1.40
2019-04-11T02:46:09.287Z,1.40
2019-04-11T02:48:24.540Z,1.60
2019-04-11T02:50:54.241Z,1.60
2019-04-11T02:53:24.502Z,1.60
2019-04-11T02:55:54.183Z,1.40
2019-04-11T02:58:25.171Z,1.20
2019-04-11T03:00:55.376Z,1.00
2019-04-11T03:03:25.323Z,1.00
2019-04-11T03:05:55.409Z,1.20
2019-04-11T03:08:26.976Z,1.20
2019-04-11T03:10:55.759Z,1.10
2019-04-11T03:13:25.392Z,1.20
2019-04-11T03:16:10.170Z,1.30
2019-04-11T03:18:40.903Z,1.20
2019-04-11T03:20:57.654Z,1.00
2019-04-11T03:23:27.274Z,1.10
2019-04-11T03:25:56.711Z,0.80
2019-04-11T03:28:30.233Z,0.80
2019-04-11T03:31:30.371Z,0.80
2019-04-11T03:36:50.909Z,0.70
2019-04-11T03:38:46.503Z,0.80
2019-04-11T03:41:16.180Z,0.80
2019-04-11T03:43:39.751Z,1.00
2019-04-11T03:46:20.220Z,1.10
2019-04-11T03:48:45.014Z,1.20
2019-04-11T03:51:03.934Z,1.50
2019-04-11T03:53:34.279Z,1.70
2019-04-11T03:56:04.601Z,1.70
2019-04-11T03:58:33.961Z,1.70
2019-04-11T04:01:05.909Z,1.60
2019-04-11T04:03:34.338Z,1.50
2019-04-11T04:06:06.948Z,1.50
2019-04-11T04:08:38.770Z,1.30
2019-04-11T04:11:16.902Z,1.60
2019-04-11T04:13:56.894Z,1.50
2019-04-11T04:16:49.869Z,1.50
2019-04-11T04:19:27.089Z,1.80
2019-04-11T04:22:16.060Z,1.70
2019-04-11T04:24:47.503Z,1.70
2019-04-11T04:27:17.286Z,1.60
2019-04-11T04:29:50.820Z,1.60
2019-04-11T04:32:16.404Z,1.60
2019-04-11T04:34:46.428Z,1.50
2019-04-11T04:37:18.104Z,1.40
2019-04-11T04:39:48.023Z,1.40
2019-04-11T04:42:25.014Z,1.20
2019-04-11T04:44:49.001Z,1.20
2019-04-11T04:47:25.069Z,1.10
2019-04-11T04:49:48.218Z,1.20
2019-04-11T04:52:18.828Z,1.40
2019-04-11T04:54:48.490Z,1.50
2019-04-11T04:57:20.216Z,1.60
2019-04-11T04:59:49.024Z,1.50
2019-04-11T05:02:18.415Z,1.60
2019-04-11T05:04:48.022Z,1.60
2019-04-11T05:07:17.239Z,2.20
2019-04-11T05:09:46.100Z,2.10
2019-04-11T05:12:16.078Z,2.20
2019-04-11T05:14:45.570Z,2.20
2019-04-11T05:17:14.981Z,2.30
2019-04-11T05:19:44.552Z,2.30
2019-04-11T05:22:13.166Z,2.50
2019-04-11T05:24:41.873Z,2.40
2019-04-11T05:27:10.898Z,2.40
2019-04-11T05:29:39.808Z,2.60
2019-04-11T05:32:09.354Z,2.70
2019-04-11T05:34:39.271Z,2.60
2019-04-11T05:37:09.001Z,2.80
2019-04-11T05:39:41.290Z,2.80
2019-04-11T05:42:11.325Z,2.70
2019-04-11T05:44:40.754Z,2.50
2019-04-11T05:47:14.667Z,2.30
2019-04-11T05:49:43.499Z,2.30
2019-04-11T05:52:12.603Z,2.30
2019-04-11T05:54:46.451Z,2.20
2019-04-11T05:57:13.334Z,2.00
2019-04-11T05:59:48.750Z,2.00
2019-04-11T06:02:24.971Z,1.90
2019-04-11T06:05:08.900Z,1.90
2019-04-11T06:07:42.160Z,2.30
2019-04-11T06:10:14.773Z,2.10
2019-04-11T06:13:02.514Z,1.90
2019-04-11T06:15:36.281Z,1.90
2019-04-11T06:18:08.227Z,1.80
2019-04-11T06:20:47.622Z,1.60
2019-04-11T06:23:23.994Z,1.60
2019-04-11T06:26:10.552Z,1.60
2019-04-11T06:28:39.698Z,2.40
2019-04-11T06:31:26.477Z,2.90
2019-04-11T06:33:59.404Z,3.00
2019-04-11T06:36:43.288Z,3.00
2019-04-11T06:39:23.031Z,2.80
2019-04-11T06:41:53.410Z,2.50
2019-04-11T06:44:23.871Z,3.00
2019-04-11T06:46:57.426Z,3.00
2019-04-11T06:49:28.913Z,2.80
2019-04-11T06:52:00.118Z,2.80
2019-04-11T06:54:31.227Z,3.10
2019-04-11T06:57:01.742Z,3.40
2019-04-11T06:59:34.911Z,3.40
2019-04-11T07:02:16.479Z,3.10
2019-04-11T07:04:44.068Z,3.10
2019-04-11T07:07:14.010Z,3.00
2019-04-11T07:10:03.927Z,3.00
2019-04-11T07:12:38.593Z,3.00
2019-04-11T07:15:10.777Z,3.00
2019-04-11T07:17:57.342Z,3.80
2019-04-11T07:20:43.996Z,4.30
2019-04-11T07:23:31.288Z,4.80
2019-04-11T07:26:04.781Z,4.80
2019-04-11T07:28:39.223Z,4.40
2019-04-11T07:31:10.542Z,3.90
2019-04-11T07:33:46.776Z,3.70
2019-04-11T07:36:33.865Z,3.60
2019-04-11T07:39:07.869Z,4.60
2019-04-11T07:41:39.907Z,5.30
2019-04-11T07:44:11.166Z,5.30
2019-04-11T07:46:58.233Z,4.80
2019-04-11T07:49:46.794Z,4.40
2019-04-11T07:52:16.031Z,4.20
2019-04-11T07:54:45.602Z,4.30
2019-04-11T07:57:28.709Z,4.30
2019-04-11T08:00:15.180Z,4.60
2019-04-11T08:03:02.000Z,4.10
2019-04-11T08:05:36.647Z,4.20
2019-04-11T08:08:19.272Z,4.30
2019-04-11T08:10:54.621Z,4.50
2019-04-11T08:13:28.368Z,4.70
2019-04-11T08:16:16.388Z,4.30
2019-04-11T08:18:46.594Z,4.10
2019-04-11T08:21:36.068Z,4.20
2019-04-11T08:24:07.822Z,4.30
2019-04-11T08:26:55.445Z,4.40
2019-04-11T08:29:24.299Z,4.50
2019-04-11T08:32:11.760Z,4.90
2019-04-11T08:34:48.014Z,4.70
2019-04-11T08:37:34.442Z,4.40
2019-04-11T08:40:05.976Z,4.20
2019-04-11T08:42:37.735Z,4.50
2019-04-11T08:45:09.711Z,4.60
2019-04-11T08:47:47.571Z,4.60
2019-04-11T08:50:14.630Z,5.60
2019-04-11T08:53:02.488Z,6.20
2019-04-11T08:55:47.748Z,6.50
2019-04-11T08:58:06.488Z,5.70
2019-04-11T09:00:38.090Z,5.30
2019-04-11T09:03:14.030Z,5.00
2019-04-11T09:05:47.405Z,4.80
2019-04-11T09:08:32.701Z,4.60
2019-04-11T09:11:08.898Z,4.40
2019-04-11T09:13:42.321Z,4.50
2019-04-11T09:16:29.632Z,4.80
2019-04-11T09:19:06.338Z,4.90
2019-04-11T09:21:42.745Z,5.00
2019-04-11T09:24:16.692Z,5.00
2019-04-11T09:26:50.095Z,5.10
2019-04-11T09:29:20.297Z,4.90
2019-04-11T09:31:56.270Z,4.90
2019-04-11T09:34:26.469Z,5.00
2019-04-11T09:37:03.358Z,5.00
2019-04-11T09:39:40.007Z,4.90
2019-04-11T09:42:28.288Z,4.90
2019-04-11T09:45:17.365Z,5.30
2019-04-11T09:48:09.414Z,5.40
2019-04-11T09:50:32.206Z,5.40
2019-04-11T09:53:01.646Z,5.10
2019-04-11T09:55:48.286Z,5.00
2019-04-11T09:58:25.327Z,5.30
2019-04-11T10:01:12.491Z,5.60
2019-04-11T10:03:42.942Z,5.50
2019-04-11T10:06:23.734Z,5.40
2019-04-11T10:08:57.639Z,5.40
2019-04-11T10:11:38.042Z,5.40
2019-04-11T10:14:11.719Z,5.70
2019-04-11T10:16:48.681Z,5.70
2019-04-11T10:19:31.721Z,5.60
2019-04-11T10:22:02.870Z,5.60
2019-04-11T10:24:34.585Z,5.60
2019-04-11T10:27:12.200Z,5.70
2019-04-11T10:29:59.105Z,5.40
2019-04-11T10:32:35.202Z,5.40
2019-04-11T10:35:06.342Z,5.30
2019-04-11T10:37:37.976Z,5.40
2019-04-11T10:40:11.588Z,5.30
2019-04-11T10:42:42.464Z,5.60
2019-04-11T10:45:25.056Z,5.70
2019-04-11T10:47:54.778Z,5.80
2019-04-11T10:50:38.267Z,5.80
2019-04-11T10:53:08.844Z,5.70
2019-04-11T10:55:42.414Z,5.70
2019-04-11T10:58:16.280Z,5.70
2019-04-11T11:01:07.392Z,5.90
2019-04-11T11:03:38.288Z,5.90
2019-04-11T11:06:09.054Z,6.00
2019-04-11T11:08:48.383Z,6.20
2019-04-11T11:11:24.683Z,6.00
2019-04-11T11:14:04.628Z,6.20
2019-04-11T11:16:44.989Z,6.50
2019-04-11T11:19:37.515Z,6.60
2019-04-11T11:21:45.120Z,6.60
2019-04-11T11:24:18.386Z,7.10
2019-04-11T11:26:47.691Z,7.20
2019-04-11T11:29:37.191Z,7.30
2019-04-11T11:32:09.095Z,7.30
2019-04-11T11:34:42.179Z,7.00
2019-04-11T11:37:33.338Z,6.70
2019-04-11T11:40:18.640Z,6.70
2019-04-11T11:42:52.552Z,6.70
2019-04-11T11:45:39.668Z,6.60
2019-04-11T11:48:19.318Z,6.50
2019-04-11T11:50:50.536Z,6.50
2019-04-11T11:53:22.637Z,6.40
2019-04-11T11:55:53.632Z,6.60
2019-04-11T11:58:30.177Z,6.80
2019-04-11T12:01:05.904Z,7.00
2019-04-11T12:03:37.137Z,7.10
2019-04-11T12:06:09.615Z,7.40
2019-04-11T12:08:56.156Z,7.00
2019-04-11T12:11:26.254Z,7.10
2019-04-11T12:14:00.005Z,7.00
2019-04-11T12:16:39.834Z,7.00
2019-04-11T12:19:21.402Z,6.70
2019-04-11T12:21:51.670Z,6.40
2019-04-11T12:24:36.414Z,6.40
2019-04-11T12:27:18.460Z,6.40
2019-04-11T12:29:54.618Z,6.50
2019-04-11T12:32:24.845Z,6.80
2019-04-11T12:35:08.143Z,7.10
2019-04-11T12:37:43.399Z,6.90
2019-04-11T12:40:25.934Z,6.90
2019-04-11T12:42:55.186Z,6.80
2019-04-11T12:45:25.386Z,6.80
2019-04-11T12:47:54.243Z,6.70
2019-04-11T12:50:26.881Z,6.60
2019-04-11T12:52:57.120Z,6.60
2019-04-11T12:55:27.314Z,6.60
2019-04-11T12:58:01.064Z,6.80
2019-04-11T13:00:37.075Z,6.70
2019-04-11T13:03:23.463Z,6.80
2019-04-11T13:05:53.658Z,6.70
2019-04-11T13:08:40.126Z,6.60
2019-04-11T13:11:10.861Z,6.70
2019-04-11T13:13:44.214Z,6.90
2019-04-11T13:16:14.690Z,6.80
2019-04-11T13:19:04.144Z,6.50
2019-04-11T13:21:39.413Z,6.60
2019-04-11T13:24:26.372Z,6.50
2019-04-11T13:26:59.562Z,6.50
2019-04-11T13:29:36.486Z,6.40
2019-04-11T13:32:07.133Z,6.50
2019-04-11T13:34:37.964Z,6.50
2019-04-11T13:37:26.215Z,6.50
2019-04-11T13:40:03.183Z,6.60
2019-04-11T13:42:39.432Z,6.50
2019-04-11T13:45:11.506Z,6.30
2019-04-11T13:47:46.145Z,6.10
2019-04-11T13:50:17.216Z,6.20
2019-04-11T13:52:47.922Z,6.10
2019-04-11T13:55:19.215Z,6.10
2019-04-11T13:58:06.989Z,6.20
2019-04-11T14:00:47.126Z,6.30
2019-04-11T14:03:23.751Z,6.50
2019-04-11T14:05:52.311Z,6.50
2019-04-11T14:08:22.533Z,6.50
2019-04-11T14:11:08.316Z,6.60
2019-04-11T14:13:46.634Z,6.60
2019-04-11T14:16:17.085Z,6.60
2019-04-11T14:18:53.311Z,6.40
2019-04-11T14:21:23.511Z,6.30
2019-04-11T14:24:12.360Z,6.50
2019-04-11T14:26:48.910Z,6.40
2019-04-11T14:29:24.949Z,6.50
2019-04-11T14:31:55.150Z,6.70
2019-04-11T14:34:25.375Z,6.70
2019-04-11T14:37:02.145Z,6.50
2019-04-11T14:39:47.837Z,6.60
2019-04-11T14:42:18.595Z,6.60
2019-04-11T14:44:49.063Z,6.40
2019-04-11T14:47:39.004Z,6.10
2019-04-11T14:50:11.164Z,6.10
2019-04-11T14:52:50.936Z,6.10
2019-04-11T14:55:21.133Z,6.00
2019-04-11T14:58:01.019Z,6.10
2019-04-11T15:00:37.307Z,6.00
2019-04-11T15:03:07.825Z,5.90
2019-04-11T15:05:44.817Z,5.90
2019-04-11T15:08:17.420Z,5.90
2019-04-11T15:10:48.316Z,6.00
2019-04-11T15:13:19.114Z,5.80
2019-04-11T15:15:49.313Z,5.80
2019-04-11T15:18:18.534Z,5.90
2019-04-11T15:20:55.190Z,6.00
2019-04-11T15:23:23.319Z,6.00
2019-04-11T15:26:10.303Z,5.80
2019-04-11T15:28:44.636Z,5.90
2019-04-11T15:31:18.524Z,5.70
2019-04-11T15:33:47.891Z,5.80
2019-04-11T15:36:27.551Z,5.80
2019-04-11T15:38:56.323Z,5.60
2019-04-11T15:41:27.222Z,5.40
2019-04-11T15:44:00.302Z,5.30
2019-04-11T15:46:32.523Z,5.20
2019-04-11T15:49:28.612Z,5.10
2019-04-11T15:51:51.427Z,5.00
2019-04-11T15:54:38.340Z,5.10
2019-04-11T15:57:12.681Z,5.20
2019-04-11T15:59:55.262Z,5.30
2019-04-11T16:02:42.394Z,5.30
2019-04-11T16:05:24.988Z,5.30
2019-04-11T16:08:08.697Z,5.40
2019-04-11T16:10:46.323Z,5.20
2019-04-11T16:13:35.529Z,5.10
2019-04-11T16:16:11.989Z,5.10
2019-04-11T16:18:46.907Z,5.20
2019-04-11T16:21:24.909Z,5.10
2019-04-11T16:23:56.938Z,5.00
2019-04-11T16:26:29.882Z,4.90
2019-04-11T16:29:12.259Z,4.90
2019-04-11T16:31:42.368Z,4.90
2019-04-11T16:34:15.915Z,4.90
2019-04-11T16:36:44.705Z,4.80
2019-04-11T16:39:32.961Z,4.60
2019-04-11T16:42:03.955Z,4.70
2019-04-11T16:44:37.235Z,4.70
2019-04-11T16:47:25.968Z,4.70
2019-04-11T16:49:56.807Z,4.60
2019-04-11T16:52:24.808Z,4.60
2019-04-11T16:54:53.442Z,4.60
2019-04-11T16:57:21.998Z,4.60
2019-04-11T16:59:50.578Z,4.50
2019-04-11T17:02:19.203Z,4.50
2019-04-11T17:04:47.791Z,4.60
2019-04-11T17:07:34.953Z,4.80
2019-04-11T17:10:07.965Z,4.80
2019-04-11T17:12:37.030Z,4.80
2019-04-11T17:15:08.379Z,4.80
2019-04-11T17:17:37.390Z,4.70
2019-04-11T17:20:07.539Z,4.50
2019-04-11T17:22:37.046Z,4.50
2019-04-11T17:25:07.173Z,4.40
2019-04-11T17:27:36.728Z,4.40
2019-04-11T17:30:07.972Z,4.30
2019-04-11T17:32:36.964Z,4.30
2019-04-11T17:35:06.950Z,4.40
2019-04-11T17:37:36.435Z,4.40
2019-04-11T17:40:07.593Z,4.40
2019-04-11T17:42:37.003Z,4.40
2019-04-11T17:45:07.154Z,4.30
2019-04-11T17:47:37.181Z,4.40
2019-04-11T17:50:07.910Z,4.30
2019-04-11T17:52:36.831Z,4.30
2019-04-11T17:55:07.114Z,4.20
2019-04-11T17:57:36.887Z,4.10
2019-04-11T18:00:09.457Z,4.20
2019-04-11T18:02:39.024Z,4.20
2019-04-11T18:05:09.336Z,4.10
2019-04-11T18:07:38.450Z,4.20
2019-04-11T18:10:08.319Z,4.20
2019-04-11T18:12:37.643Z,4.50
2019-04-11T18:15:07.884Z,4.50
2019-04-11T18:17:36.765Z,4.60
2019-04-11T18:20:08.802Z,4.50
2019-04-11T18:22:37.552Z,4.40
2019-04-11T18:25:07.143Z,4.30
2019-04-11T18:27:35.991Z,4.20
2019-04-11T18:30:11.160Z,4.20
2019-04-11T18:32:40.622Z,4.30
2019-04-11T18:35:09.898Z,4.20
2019-04-11T18:37:39.440Z,4.20
2019-04-11T18:40:10.761Z,4.20
2019-04-11T18:42:39.533Z,4.20
2019-04-11T18:45:10.242Z,4.10
2019-04-11T18:47:39.499Z,4.10
2019-04-11T18:50:09.431Z,4.10
2019-04-11T18:52:38.140Z,4.00
2019-04-11T18:55:09.772Z,4.00
2019-04-11T18:57:38.613Z,4.10
2019-04-11T19:00:10.410Z,4.10
2019-04-11T19:02:40.221Z,4.10
2019-04-11T19:05:10.850Z,4.10
2019-04-11T19:07:42.795Z,4.00
2019-04-11T19:10:14.418Z,3.90
2019-04-11T19:12:45.924Z,4.00
2019-04-11T19:15:16.743Z,4.00
2019-04-11T19:17:46.790Z,4.10
2019-04-11T19:20:18.676Z,4.10
2019-04-11T19:22:45.733Z,4.00
2019-04-11T19:25:14.532Z,3.90
2019-04-11T19:27:43.081Z,3.90
2019-04-11T19:30:12.353Z,3.90
2019-04-11T19:32:41.006Z,3.90
2019-04-11T19:35:09.730Z,3.90
2019-04-11T19:37:41.860Z,3.90
2019-04-11T19:40:10.158Z,3.90
2019-04-11T19:42:39.059Z,3.80
2019-04-11T19:45:07.957Z,3.90
2019-04-11T19:47:36.677Z,3.90
2019-04-11T19:50:07.302Z,3.80
2019-04-11T19:52:45.292Z,3.80
2019-04-11T19:55:11.835Z,3.70
2019-04-11T19:57:40.765Z,3.80
2019-04-11T20:00:11.539Z,3.80
2019-04-11T20:02:40.326Z,3.80
2019-04-11T20:05:12.074Z,3.80
2019-04-11T20:07:40.205Z,3.80
2019-04-11T20:10:10.183Z,3.80
2019-04-11T20:12:38.974Z,3.80
2019-04-11T20:15:08.842Z,3.90
2019-04-11T20:17:44.274Z,3.90
2019-04-11T20:20:08.489Z,3.90
2019-04-11T20:22:39.732Z,3.80
2019-04-11T20:25:07.597Z,3.80
2019-04-11T20:27:36.482Z,3.80
2019-04-11T20:30:07.211Z,3.80
2019-04-11T20:32:35.962Z,3.80
2019-04-11T20:35:09.323Z,3.80
2019-04-11T20:37:39.425Z,3.90
2019-04-11T20:40:07.772Z,3.90
2019-04-11T20:42:36.713Z,3.90
2019-04-11T20:45:06.787Z,3.70
2019-04-11T20:47:35.759Z,3.70
2019-04-11T20:50:07.559Z,3.70
2019-04-11T20:52:36.290Z,3.70
2019-04-11T20:55:08.924Z,3.70
2019-04-11T20:57:36.647Z,3.60
2019-04-11T21:00:12.032Z,3.60
2019-04-11T21:02:38.372Z,3.60
2019-04-11T21:05:07.935Z,3.60
2019-04-11T21:07:39.098Z,3.50
2019-04-11T21:10:07.707Z,3.50
2019-04-11T21:12:37.283Z,3.40
2019-04-11T21:15:10.389Z,3.40
2019-04-11T21:17:39.119Z,3.50
2019-04-11T21:20:10.068Z,3.40
2019-04-11T21:22:39.094Z,3.40
2019-04-11T21:25:08.218Z,3.40
2019-04-11T21:27:38.111Z,3.50
2019-04-11T21:30:08.723Z,3.50
2019-04-11T21:32:37.841Z,3.50
2019-04-11T21:35:07.821Z,3.60
2019-04-11T21:37:37.798Z,3.50
2019-04-11T21:40:07.585Z,3.70
2019-04-11T21:42:37.085Z,3.70
2019-04-11T21:45:06.882Z,3.70
2019-04-11T21:47:37.384Z,3.70
2019-04-11T21:50:09.654Z,3.60
2019-04-11T21:52:43.380Z,3.90
2019-04-11T21:55:15.171Z,3.90
2019-04-11T21:57:41.662Z,4.00
2019-04-11T22:00:16.514Z,4.00
2019-04-11T22:02:46.018Z,3.80
2019-04-11T22:05:15.664Z,4.00
2019-04-11T22:07:44.536Z,3.90
2019-04-11T22:10:14.656Z,3.80
2019-04-11T22:12:43.856Z,3.60
2019-04-11T22:15:13.438Z,3.60
2019-04-11T22:17:42.931Z,3.60
2019-04-11T22:20:14.130Z,3.60
2019-04-11T22:22:43.858Z,3.60
2019-04-11T22:25:12.833Z,3.80
2019-04-11T22:27:41.945Z,3.80
2019-04-11T22:30:11.211Z,3.80
2019-04-11T22:32:41.842Z,3.80
2019-04-11T22:35:10.938Z,4.10
2019-04-11T22:37:39.855Z,3.90
2019-04-11T22:40:08.994Z,3.80
2019-04-11T22:42:37.776Z,3.50
2019-04-11T22:45:08.505Z,3.30
2019-04-11T22:47:38.989Z,3.30
2019-04-11T22:50:10.126Z,3.20
2019-04-11T22:52:39.864Z,3.20
2019-04-11T22:55:11.311Z,3.30
2019-04-11T22:57:40.890Z,3.30
2019-04-11T23:00:14.719Z,3.20
2019-04-11T23:02:44.919Z,3.20
2019-04-11T23:05:14.941Z,3.20
2019-04-11T23:07:45.926Z,3.20
2019-04-11T23:10:17.076Z,3.30
2019-04-11T23:12:46.640Z,3.30
2019-04-11T23:15:15.742Z,3.30
2019-04-11T23:17:44.761Z,3.30
2019-04-11T23:20:14.282Z,3.30
2019-04-11T23:22:43.861Z,3.20
2019-04-11T23:25:13.203Z,3.00
2019-04-11T23:27:42.061Z,3.10
2019-04-11T23:30:11.878Z,3.00
2019-04-11T23:32:40.766Z,3.00
2019-04-11T23:35:09.459Z,3.00
2019-04-11T23:37:51.082Z,2.90
2019-04-11T23:40:21.743Z,2.90
2019-04-11T23:42:50.967Z,3.00
2019-04-11T23:45:21.498Z,2.90
2019-04-11T23:47:53.201Z,2.90
2019-04-11T23:50:20.302Z,2.90
2019-04-11T23:52:48.881Z,3.00
2019-04-11T23:55:17.870Z,3.00
2019-04-11T23:57:46.524Z,3.00
